Time;durP1;ratioP1;P1;durP2;ratioP2;P2;SDS_P1;SDS_P2;PMS_P1;PMS_P2;Temp;Humidity;BMP_temperature;BMP_pressure;BME280_temperature;BME280_humidity;BME280_pressure;Samples;Min_cycle;Max_cycle;Signal;HPM_P1;HPM_P2
2022/09/09 00:02:17;;;;;;;0.20;0.20;;;;;;;18.83;59.62;100291.16;5214898;28;20033;-80
2022/09/09 00:05:01;;;;;;;0.25;0.25;;;;;;;18.85;59.73;100290.09;5196562;28;20028;-80
2022/09/09 00:07:45;;;;;;;3.20;1.20;;;;;;;18.78;60.23;100287.97;5230364;28;20044;-84
2022/09/09 00:10:29;;;;;;;0.20;0.20;;;;;;;18.74;60.15;100287.31;5228836;28;20033;-82
2022/09/09 00:13:16;;;;;;;0.10;0.10;;;;;;;18.76;59.95;100285.41;5214897;28;20043;-81
2022/09/09 00:15:47;;;;;;;0.20;0.20;;;;;;;18.77;59.94;100289.78;5225944;28;20414;-81
2022/09/09 00:18:24;;;;;;;0.20;0.20;;;;;;;18.75;59.99;100289.03;5190045;28;20041;-80
2022/09/09 00:21:07;;;;;;;0.22;0.22;;;;;;;18.66;60.59;100285.19;5206235;28;20029;-79
2022/09/09 00:23:39;;;;;;;0.20;0.20;;;;;;;18.70;59.86;100285.84;5191001;28;20033;-80
2022/09/09 00:26:23;;;;;;;0.20;0.20;;;;;;;18.68;60.02;100279.78;5222564;28;20290;-80
2022/09/09 00:28:59;;;;;;;;;;;;;;;18.66;59.81;100276.38;5210101;28;20067;-80
2022/09/09 00:31:31;;;;;;;0.50;0.50;;;;;;;18.64;60.29;100278.25;5220732;28;19913;-80
2022/09/09 00:34:13;;;;;;;0.20;0.20;;;;;;;18.66;60.17;100273.72;5222930;28;20037;-80
2022/09/09 00:36:45;;;;;;;0.30;0.30;;;;;;;18.64;60.20;100280.91;5224914;28;20025;-79
2022/09/09 00:39:37;;;;;;;0.20;0.20;;;;;;;18.65;60.49;100283.50;5208896;28;20707;-80
2022/09/09 00:42:13;;;;;;;0.20;0.20;;;;;;;18.56;60.06;100284.97;5211357;28;20432;-80
2022/09/09 00:45:01;;;;;;;0.20;0.20;;;;;;;18.54;60.17;100267.44;5217945;28;20064;-79
2022/09/09 00:47:34;;;;;;;0.32;0.32;;;;;;;18.51;60.01;100279.13;5195064;28;20040;-80
2022/09/09 00:50:43;;;;;;;0.20;0.20;;;;;;;18.52;60.33;100282.59;5223808;28;20032;-79
2022/09/09 00:53:42;;;;;;;0.20;0.20;;;;;;;18.47;60.24;100288.22;5224394;28;20033;-80
2022/09/09 00:56:14;;;;;;;0.20;0.20;;;;;;;18.47;60.54;100282.91;5187772;28;20025;-80
2022/09/09 00:59:04;;;;;;;0.22;0.22;;;;;;;18.43;60.52;100286.75;5224421;28;20064;-80
2022/09/09 01:01:35;;;;;;;0.47;0.47;;;;;;;18.40;60.20;100286.94;5205085;28;20028;-80
2022/09/09 01:04:16;;;;;;;0.20;0.20;;;;;;;18.43;60.64;100289.41;5201390;28;20037;-81
2022/09/09 01:06:53;;;;;;;0.30;0.30;;;;;;;18.39;60.54;100278.13;5189684;28;20083;-79
2022/09/09 01:09:52;;;;;;;0.47;0.47;;;;;;;18.34;60.43;100277.59;5206987;28;20056;-80
2022/09/09 01:12:41;;;;;;;0.90;0.90;;;;;;;18.31;60.67;100272.50;5224498;28;20097;-80
2022/09/09 01:15:19;;;;;;;0.43;0.43;;;;;;;18.31;60.72;100279.59;5204926;28;20029;-80
2022/09/09 01:18:02;;;;;;;0.25;0.25;;;;;;;18.30;60.56;100278.75;5188787;28;20033;-80
2022/09/09 01:21:10;;;;;;;7.30;0.47;;;;;;;18.29;60.64;100277.03;5199446;28;20033;-80
2022/09/09 01:24:05;;;;;;;0.20;0.20;;;;;;;18.24;60.50;100269.38;5204685;28;20531;-80
2022/09/09 01:26:41;;;;;;;0.25;0.25;;;;;;;18.19;60.87;100265.31;5201253;28;20507;-80
2022/09/09 01:29:15;;;;;;;0.22;0.22;;;;;;;18.17;60.69;100270.75;5234125;28;20088;-80
2022/09/09 01:31:59;;;;;;;0.20;0.20;;;;;;;18.14;60.74;100272.75;5227065;28;20025;-80
2022/09/09 01:34:35;;;;;;;0.30;0.30;;;;;;;18.10;60.64;100282.72;5210115;28;20028;-81
2022/09/09 01:37:10;;;;;;;0.30;0.30;;;;;;;18.05;60.66;100280.38;5208006;28;20563;-81
2022/09/09 01:39:43;;;;;;;0.20;0.20;;;;;;;18.05;60.79;100276.88;5195984;28;20033;-81
2022/09/09 01:42:16;;;;;;;0.20;0.20;;;;;;;18.03;60.57;100271.66;5191160;28;20051;-80
2022/09/09 01:44:47;;;;;;;0.20;0.20;;;;;;;18.02;60.58;100269.09;5213675;28;20275;-80
2022/09/09 01:47:17;;;;;;;0.20;0.20;;;;;;;17.96;61.04;100270.34;5197459;28;20041;-80
2022/09/09 01:49:48;;;;;;;0.30;0.30;;;;;;;17.91;60.95;100277.75;5215376;28;20027;-80
2022/09/09 01:52:18;;;;;;;0.20;0.20;;;;;;;17.98;60.98;100279.06;5227972;28;20040;-80
2022/09/09 01:54:49;;;;;;;0.20;0.20;;;;;;;17.94;61.00;100265.13;5234533;28;20036;-80
2022/09/09 01:57:22;;;;;;;0.32;0.32;;;;;;;17.92;60.65;100267.00;5205716;28;20164;-80
2022/09/09 02:00:11;;;;;;;0.20;0.20;;;;;;;17.87;60.94;100266.47;5213607;28;20064;-80
2022/09/09 02:02:47;;;;;;;1.38;0.50;;;;;;;17.82;61.74;100273.03;5218297;28;20155;-80
2022/09/09 02:05:21;;;;;;;0.20;0.20;;;;;;;17.84;61.65;100265.81;5208320;28;20033;-79
2022/09/09 02:08:16;;;;;;;0.50;0.50;;;;;;;17.73;62.35;100275.31;5195781;28;20041;-80
2022/09/09 02:11:23;;;;;;;0.20;0.20;;;;;;;17.80;61.04;100275.78;5203859;28;20044;-80
2022/09/09 02:14:03;;;;;;;0.43;0.43;;;;;;;17.79;61.56;100274.09;5132615;28;20065;-79
2022/09/09 02:17:02;;;;;;;0.20;0.20;;;;;;;17.74;61.95;100270.84;5183741;28;20037;-80
2022/09/09 02:19:39;;;;;;;0.20;0.20;;;;;;;17.71;62.12;100268.41;5199904;28;20055;-80
2022/09/09 02:22:10;;;;;;;0.22;0.22;;;;;;;17.72;61.62;100264.81;5208097;28;20055;-80
2022/09/09 02:24:40;;;;;;;0.20;0.20;;;;;;;17.73;61.97;100266.50;5215003;28;20029;-79
2022/09/09 02:27:13;;;;;;;3.17;1.17;;;;;;;17.75;61.47;100267.25;5216186;28;20031;-80
2022/09/09 02:29:44;;;;;;;0.38;0.38;;;;;;;17.70;64.77;100262.25;5196345;28;20068;-79
2022/09/09 02:32:19;;;;;;;0.30;0.30;;;;;;;17.75;64.52;100261.94;5230042;28;20100;-79
2022/09/09 02:35:16;;;;;;;0.20;0.20;;;;;;;17.69;62.67;100267.66;5220318;28;20051;-80
2022/09/09 02:37:47;;;;;;;0.40;0.40;;;;;;;17.67;62.56;100264.25;5201085;28;21033;-80
2022/09/09 02:40:17;;;;;;;0.20;0.20;;;;;;;17.65;62.37;100266.13;5203457;28;20025;-80
2022/09/09 02:42:49;;;;;;;17.02;0.77;;;;;;;17.67;62.68;100258.94;5216699;28;20083;-80
2022/09/09 02:45:25;;;;;;;0.30;0.30;;;;;;;17.65;62.99;100261.69;5221426;28;20013;-80
2022/09/09 02:47:58;;;;;;;0.17;0.17;;;;;;;17.65;62.64;100255.53;5231800;28;20059;-79
2022/09/09 02:50:33;;;;;;;0.20;0.20;;;;;;;17.66;63.96;100255.44;5231879;28;20398;-80
2022/09/09 02:53:16;;;;;;;0.20;0.20;;;;;;;17.60;62.32;100247.91;5232695;28;20499;-79
2022/09/09 02:56:08;;;;;;;1.13;1.13;;;;;;;17.60;62.72;100251.38;5194613;28;20058;-80
2022/09/09 02:58:39;;;;;;;0.20;0.20;;;;;;;17.62;62.31;100246.84;5232805;28;20048;-80
2022/09/09 03:01:45;;;;;;;0.30;0.30;;;;;;;17.61;62.38;100242.47;5216651;28;20217;-79
2022/09/09 03:04:16;;;;;;;0.20;0.20;;;;;;;17.73;62.37;100248.78;5166629;28;20468;-79
2022/09/09 03:06:58;;;;;;;0.20;0.20;;;;;;;17.76;63.20;100242.44;5239373;28;20543;-79
2022/09/09 03:09:32;;;;;;;0.52;0.43;;;;;;;17.63;62.61;100239.72;5198658;28;20033;-80
2022/09/09 03:12:04;;;;;;;0.20;0.20;;;;;;;17.60;62.72;100247.91;5199479;28;20052;-80
2022/09/09 03:14:38;;;;;;;0.30;0.30;;;;;;;17.66;63.02;100241.31;5199407;28;20029;-80
2022/09/09 03:17:09;;;;;;;0.20;0.20;;;;;;;17.61;63.35;100238.97;5206807;28;20049;-80
2022/09/09 03:19:39;;;;;;;0.50;0.50;;;;;;;17.59;63.37;100240.88;5188021;28;20030;-79
2022/09/09 03:22:11;;;;;;;0.20;0.20;;;;;;;17.64;64.55;100243.25;5214078;28;20054;-80
2022/09/09 03:24:41;;;;;;;0.20;0.20;;;;;;;17.65;64.74;100239.59;5200842;28;20559;-80
2022/09/09 03:27:14;;;;;;;0.20;0.20;;;;;;;17.54;64.21;100241.19;5201040;28;20114;-80
2022/09/09 03:29:45;;;;;;;0.65;0.63;;;;;;;17.56;64.00;100238.41;5215626;28;20032;-80
2022/09/09 03:32:17;;;;;;;0.35;0.35;;;;;;;17.57;64.09;100232.16;5235155;28;20051;-81
2022/09/09 03:34:52;;;;;;;0.20;0.20;;;;;;;17.61;64.08;100245.13;5235106;28;20033;-80
2022/09/09 03:37:22;;;;;;;0.35;0.35;;;;;;;17.67;63.71;100243.03;5228916;28;20068;-79
2022/09/09 03:39:54;;;;;;;1.73;0.63;;;;;;;17.62;64.12;100243.31;5243381;28;20059;-80
2022/09/09 03:42:25;;;;;;;0.20;0.20;;;;;;;17.60;64.30;100246.06;5213904;28;20095;-81
2022/09/09 03:44:57;;;;;;;0.43;0.43;;;;;;;17.56;64.40;100233.94;5229390;28;20020;-80
2022/09/09 03:47:28;;;;;;;0.30;0.30;;;;;;;17.59;63.70;100236.41;5234579;28;20032;-80
2022/09/09 03:49:59;;;;;;;0.30;0.30;;;;;;;17.59;64.73;100248.84;5248472;28;20009;-79
2022/09/09 03:52:30;;;;;;;0.30;0.30;;;;;;;17.57;63.89;100243.59;5239829;28;20158;-79
2022/09/09 03:55:01;;;;;;;3.20;0.75;;;;;;;17.58;64.39;100247.97;5244186;28;20032;-79
2022/09/09 03:57:34;;;;;;;1.55;1.38;;;;;;;17.53;64.82;100244.78;5244843;28;20033;-79
2022/09/09 04:00:07;;;;;;;0.20;0.20;;;;;;;17.56;64.03;100247.22;5247156;28;20084;-79
2022/09/09 04:02:39;;;;;;;0.30;0.30;;;;;;;17.48;64.61;100249.50;5228245;28;20446;-79
2022/09/09 04:05:09;;;;;;;0.35;0.35;;;;;;;17.47;63.86;100245.16;5204292;28;20033;-79
2022/09/09 04:07:40;;;;;;;0.20;0.20;;;;;;;17.48;64.32;100249.50;5187790;28;20529;-79
2022/09/09 04:10:11;;;;;;;0.57;0.57;;;;;;;17.53;63.69;100250.06;5216501;28;20121;-79
2022/09/09 04:12:41;;;;;;;0.20;0.20;;;;;;;17.47;64.14;100253.13;5215938;28;20033;-79
2022/09/09 04:15:12;;;;;;;0.25;0.25;;;;;;;17.49;63.94;100253.84;5214870;28;20021;-80
2022/09/09 04:17:42;;;;;;;16.08;1.20;;;;;;;17.41;64.93;100253.50;5236122;28;20033;-79
2022/09/09 04:20:13;;;;;;;0.20;0.20;;;;;;;17.53;64.06;100257.16;5227617;28;20024;-80
2022/09/09 04:22:43;;;;;;;0.20;0.20;;;;;;;17.46;63.70;100252.25;5202388;28;20049;-80
2022/09/09 04:25:14;;;;;;;0.40;0.40;;;;;;;17.37;65.35;100249.34;5221424;28;20033;-79
2022/09/09 04:27:44;;;;;;;0.60;0.60;;;;;;;17.39;64.82;100243.00;5187064;28;20489;-80
2022/09/09 04:30:16;;;;;;;0.20;0.20;;;;;;;17.44;65.06;100242.69;5219023;28;20041;-81
2022/09/09 04:32:46;;;;;;;0.20;0.20;;;;;;;17.44;66.69;100246.19;5256217;28;20059;-79
2022/09/09 04:35:18;;;;;;;0.32;0.32;;;;;;;17.40;64.76;100241.19;5230421;28;20029;-79
2022/09/09 04:37:49;;;;;;;0.70;0.70;;;;;;;17.41;65.77;100241.09;5222806;28;20057;-79
2022/09/09 04:40:23;;;;;;;0.40;0.40;;;;;;;17.42;64.84;100240.16;5198197;28;20028;-79
2022/09/09 04:42:53;;;;;;;0.20;0.20;;;;;;;17.52;65.01;100235.09;5220963;28;20037;-79
2022/09/09 04:45:24;;;;;;;0.40;0.40;;;;;;;17.41;64.65;100237.59;5239664;28;20398;-79
2022/09/09 04:47:54;;;;;;;0.30;0.30;;;;;;;17.39;64.23;100239.50;5202397;28;20033;-79
2022/09/09 04:50:25;;;;;;;0.50;0.50;;;;;;;17.35;64.59;100237.97;5197732;28;20040;-78
2022/09/09 04:52:56;;;;;;;2.20;0.95;;;;;;;17.35;64.37;100237.97;5221258;28;20170;-79
2022/09/09 04:55:26;;;;;;;0.30;0.30;;;;;;;17.38;65.14;100237.78;5206443;28;20040;-81
2022/09/09 04:57:57;;;;;;;0.28;0.28;;;;;;;17.38;64.30;100246.59;5188974;28;20036;-80
2022/09/09 05:00:28;;;;;;;0.20;0.20;;;;;;;17.42;64.78;100241.94;5201455;28;20094;-79
2022/09/09 05:03:03;;;;;;;0.30;0.30;;;;;;;17.44;64.92;100242.69;5207044;28;20110;-80
2022/09/09 05:05:36;;;;;;;1.38;1.27;;;;;;;17.36;65.87;100248.47;5209219;28;20732;-79
2022/09/09 05:08:08;;;;;;;0.20;0.20;;;;;;;17.46;64.64;100240.81;5185852;28;20049;-80
2022/09/09 05:10:41;;;;;;;0.20;0.20;;;;;;;17.44;64.46;100242.69;5201523;28;20080;-81
2022/09/09 05:13:12;;;;;;;0.38;0.38;;;;;;;17.41;64.68;100238.44;5220873;28;20041;-80
2022/09/09 05:15:50;;;;;;;0.20;0.20;;;;;;;17.40;64.29;100247.34;5220947;28;20040;-80
2022/09/09 05:18:22;;;;;;;0.20;0.20;;;;;;;17.50;65.50;100244.97;5215319;28;20088;-80
2022/09/09 05:20:52;;;;;;;0.20;0.20;;;;;;;17.43;63.92;100247.16;5208215;28;20028;-80
2022/09/09 05:23:23;;;;;;;0.60;0.60;;;;;;;17.43;64.55;100244.50;5218679;28;20605;-80
2022/09/09 05:25:56;;;;;;;2.22;2.08;;;;;;;17.44;64.71;100242.69;5199533;28;20040;-81
2022/09/09 05:28:28;;;;;;;0.30;0.30;;;;;;;17.47;64.98;100245.16;5176530;28;20454;-80
2022/09/09 05:31:09;;;;;;;0.68;0.60;;;;;;;17.46;64.57;100243.47;5203979;28;20021;-81
2022/09/09 05:33:42;;;;;;;0.20;0.20;;;;;;;17.42;64.34;100248.13;5182077;28;20112;-81
2022/09/09 05:36:21;;;;;;;0.50;0.50;;;;;;;17.45;65.20;100250.56;5198978;28;20720;-81
2022/09/09 05:38:53;;;;;;;0.38;0.38;;;;;;;17.44;64.88;100248.84;5198109;28;20045;-81
2022/09/09 05:41:27;;;;;;;2.05;0.60;;;;;;;17.52;64.89;100251.03;5183342;28;20159;-80
2022/09/09 05:43:58;;;;;;;0.20;0.20;;;;;;;17.49;67.52;100251.22;5198948;28;20331;-81
2022/09/09 05:46:30;;;;;;;0.20;0.20;;;;;;;17.54;66.47;100254.44;5200368;28;20029;-80
2022/09/09 05:49:02;;;;;;;2.67;0.85;;;;;;;17.53;66.29;100252.72;5183366;28;20041;-81
2022/09/09 05:51:33;;;;;;;0.30;0.30;;;;;;;17.50;66.54;100247.59;5186263;28;20411;-80
2022/09/09 05:54:03;;;;;;;0.30;0.30;;;;;;;17.47;68.02;100253.13;5208471;28;20051;-81
2022/09/09 05:56:34;;;;;;;0.52;0.43;;;;;;;17.55;66.96;100250.84;5190314;28;20029;-81
2022/09/09 05:59:05;;;;;;;0.20;0.20;;;;;;;17.56;65.92;100254.31;5236893;28;20048;-81
2022/09/09 06:01:40;;;;;;;0.20;0.20;;;;;;;17.65;66.37;100255.53;5190133;28;20037;-81
2022/09/09 06:04:10;;;;;;;0.30;0.30;;;;;;;17.66;67.08;100257.22;5219765;28;20048;-80
2022/09/09 06:06:41;;;;;;;0.20;0.20;;;;;;;17.71;66.68;100255.16;5221417;28;20067;-81
2022/09/09 06:09:13;;;;;;;0.20;0.20;;;;;;;17.55;68.92;100256.16;5214676;28;20049;-81
2022/09/09 06:11:44;;;;;;;0.30;0.30;;;;;;;17.50;67.78;100252.91;5207255;28;20612;-81
2022/09/09 06:14:14;;;;;;;0.20;0.20;;;;;;;17.63;67.57;100255.63;5224042;28;20056;-81
2022/09/09 06:16:45;;;;;;;0.40;0.40;;;;;;;17.61;66.87;100254.88;5242352;28;20037;-80
2022/09/09 06:19:16;;;;;;;0.47;0.47;;;;;;;17.59;67.17;100256.78;5200338;28;20045;-81
2022/09/09 06:21:47;;;;;;;0.43;0.43;;;;;;;17.56;67.90;100252.50;5242907;28;20028;-81
2022/09/09 06:24:19;;;;;;;0.20;0.20;;;;;;;17.54;67.42;100250.91;5202289;28;20041;-80
2022/09/09 06:26:50;;;;;;;0.20;0.20;;;;;;;17.46;67.41;100262.88;5191926;28;20119;-79
2022/09/09 06:29:20;;;;;;;0.30;0.30;;;;;;;17.51;67.22;100249.31;5199537;28;20033;-81
2022/09/09 06:31:51;;;;;;;1.35;0.50;;;;;;;17.52;66.82;100255.50;5191987;28;20033;-80
2022/09/09 06:34:22;;;;;;;0.20;0.20;;;;;;;17.47;67.68;100258.44;5216605;28;20038;-81
2022/09/09 06:36:52;;;;;;;0.43;0.43;;;;;;;17.42;67.07;100258.72;5222381;28;20067;-81
2022/09/09 06:39:23;;;;;;;0.73;0.73;;;;;;;17.55;66.18;100248.19;5204951;28;20033;-80
2022/09/09 06:41:53;;;;;;;2.58;0.50;;;;;;;17.55;66.26;100248.19;5198364;28;20025;-81
2022/09/09 06:44:26;;;;;;;0.85;0.63;;;;;;;17.50;66.31;100250.25;5185892;28;20101;-81
2022/09/09 06:46:57;;;;;;;0.40;0.40;;;;;;;17.59;65.85;100249.69;5194829;28;20025;-81
2022/09/09 06:49:27;;;;;;;0.20;0.20;;;;;;;17.63;66.12;100252.97;5195979;28;20029;-81
2022/09/09 06:51:58;;;;;;;0.20;0.20;;;;;;;17.52;66.10;100251.03;5192219;28;20033;-81
2022/09/09 06:54:28;;;;;;;0.20;0.20;;;;;;;17.62;65.48;100248.63;5204036;28;20021;-81
2022/09/09 06:57:00;;;;;;;0.75;0.60;;;;;;;17.49;65.81;100245.91;5194699;28;20032;-80
2022/09/09 06:59:31;;;;;;;0.20;0.20;;;;;;;17.61;65.29;100250.44;5206354;28;20025;-81
2022/09/09 07:02:05;;;;;;;0.30;0.30;;;;;;;17.69;65.44;100249.09;5192457;28;20037;-81
2022/09/09 07:04:38;;;;;;;0.30;0.30;;;;;;;17.58;65.24;100249.78;5241436;28;20041;-80
2022/09/09 07:07:12;;;;;;;0.20;0.20;;;;;;;17.57;65.60;100251.56;5219227;28;20348;-81
2022/09/09 07:09:42;;;;;;;1.33;0.85;;;;;;;17.56;65.80;100264.94;5185927;28;20045;-81
2022/09/09 07:12:13;;;;;;;0.85;0.85;;;;;;;17.58;65.85;100255.94;5206571;28;20040;-80
2022/09/09 07:14:43;;;;;;;0.43;0.40;;;;;;;17.60;65.62;100259.34;5211268;28;20047;-80
2022/09/09 07:17:14;;;;;;;0.50;0.50;;;;;;;17.72;65.47;100263.00;5223618;28;20055;-80
2022/09/09 07:19:44;;;;;;;0.55;0.55;;;;;;;17.68;65.14;100258.88;5210157;28;20048;-79
2022/09/09 07:22:15;;;;;;;4.40;1.35;;;;;;;17.61;64.81;100261.03;5222575;28;20087;-80
2022/09/09 07:24:49;;;;;;;0.30;0.30;;;;;;;17.65;64.35;100268.78;5191851;28;20125;-82
2022/09/09 07:27:20;;;;;;;0.80;0.80;;;;;;;17.59;64.43;100267.41;5182789;28;20398;-80
2022/09/09 07:29:51;;;;;;;0.30;0.30;;;;;;;17.66;64.00;100273.16;5207445;28;20089;-79
2022/09/09 07:32:21;;;;;;;0.20;0.20;;;;;;;17.68;64.29;100276.56;5204583;28;20498;-79
2022/09/09 07:34:52;;;;;;;0.20;0.20;;;;;;;17.63;64.47;100276.84;5216661;28;20029;-79
2022/09/09 07:37:22;;;;;;;0.30;0.30;;;;;;;17.70;63.56;100279.97;5200472;28;20076;-79
2022/09/09 07:39:53;;;;;;;0.43;0.43;;;;;;;17.79;63.48;100274.09;5202293;28;20023;-80
2022/09/09 07:42:23;;;;;;;0.30;0.30;;;;;;;17.73;63.82;100270.03;5187110;28;20124;-79
2022/09/09 07:44:54;;;;;;;1.00;0.40;;;;;;;17.79;62.38;100276.75;5201610;28;20116;-80
2022/09/09 07:47:25;;;;;;;1.30;0.52;;;;;;;17.73;62.70;100277.09;5219980;28;20064;-79
2022/09/09 07:49:55;;;;;;;0.30;0.30;;;;;;;17.74;63.06;100281.47;5201920;28;20594;-80
2022/09/09 07:52:27;;;;;;;0.20;0.20;;;;;;;17.82;62.87;100279.16;5218613;28;20053;-80
2022/09/09 07:54:57;;;;;;;0.20;0.20;;;;;;;17.84;63.26;100279.94;5210529;28;20025;-80
2022/09/09 07:57:30;;;;;;;0.20;0.20;;;;;;;17.88;63.43;100273.50;5192458;28;20095;-80
2022/09/09 08:00:08;;;;;;;0.20;0.20;;;;;;;17.95;62.86;100273.91;5236100;28;20070;-81
2022/09/09 08:02:41;;;;;;;0.20;0.20;;;;;;;18.01;62.44;100288.63;5191488;28;20413;-81
2022/09/09 08:05:14;;;;;;;3.40;0.77;;;;;;;18.05;61.77;100275.06;5204975;28;20024;-81
2022/09/09 08:07:45;;;;;;;0.47;0.47;;;;;;;17.97;61.40;100277.38;5210190;28;20108;-80
2022/09/09 08:10:16;;;;;;;0.22;0.22;;;;;;;18.01;61.62;100273.56;5193140;28;20703;-81
2022/09/09 08:12:46;;;;;;;0.20;0.20;;;;;;;18.04;61.09;100275.16;5190173;28;20036;-80
2022/09/09 08:15:18;;;;;;;0.20;0.20;;;;;;;18.04;61.55;100283.13;5208156;28;20029;-80
2022/09/09 08:17:48;;;;;;;0.30;0.30;;;;;;;18.03;61.55;100282.28;5186887;28;20631;-80
2022/09/09 08:20:19;;;;;;;0.73;0.40;;;;;;;18.19;61.00;100283.91;5202946;28;20035;-80
2022/09/09 08:22:50;;;;;;;0.20;0.20;;;;;;;18.14;61.07;100284.22;5213999;28;20484;-79
2022/09/09 08:25:20;;;;;;;0.20;0.20;;;;;;;18.20;61.14;100286.47;5202600;28;20055;-79
2022/09/09 08:27:53;;;;;;;0.77;0.77;;;;;;;18.31;60.99;100280.44;5193588;28;20040;-80
2022/09/09 08:30:23;;;;;;;0.50;0.50;;;;;;;18.23;60.79;100278.28;5206810;28;20043;-78
2022/09/09 08:32:54;;;;;;;0.60;0.60;;;;;;;18.30;60.72;100289.38;5191665;28;20675;-79
2022/09/09 08:35:25;;;;;;;0.20;0.20;;;;;;;18.32;61.39;100283.94;5205004;28;20036;-79
2022/09/09 08:37:55;;;;;;;0.28;0.28;;;;;;;18.36;59.99;100288.13;5211679;28;20579;-78
2022/09/09 08:40:32;;;;;;;1.08;1.00;;;;;;;18.40;60.72;100286.94;5218762;28;20040;-79
2022/09/09 08:43:04;;;;;;;0.50;0.50;;;;;;;18.46;60.58;100289.22;5200546;28;20044;-79
2022/09/09 08:46:07;;;;;;;0.30;0.30;;;;;;;18.62;60.17;100304.13;5202915;28;20033;-81
2022/09/09 08:48:56;;;;;;;0.20;0.20;;;;;;;18.53;60.54;100298.47;5205351;28;20057;-79
2022/09/09 08:51:29;;;;;;;0.20;0.20;;;;;;;18.60;60.71;100301.53;5225984;28;20037;-79
2022/09/09 08:54:03;;;;;;;0.28;0.28;;;;;;;18.69;60.33;100302.75;5235709;28;20536;-80
2022/09/09 08:56:34;;;;;;;0.20;0.20;;;;;;;18.69;60.16;100295.59;5188449;28;20133;-79
2022/09/09 08:59:05;;;;;;;3.88;0.60;;;;;;;18.67;58.70;100313.47;5180528;28;20608;-79
2022/09/09 09:02:16;;;;;;;0.43;0.43;;;;;;;18.64;57.76;100315.47;5214707;28;20118;-79
2022/09/09 09:05:09;;;;;;;0.20;0.20;;;;;;;18.51;58.26;100312.81;5224149;28;20038;-79
2022/09/09 09:08:18;;;;;;;0.40;0.40;;;;;;;18.60;57.94;100311.31;5203546;28;20040;-79
2022/09/09 09:10:53;;;;;;;0.10;0.10;;;;;;;18.67;57.83;100320.59;5235610;28;20041;-80
2022/09/09 09:13:30;;;;;;;0.20;0.20;;;;;;;18.63;57.81;100317.28;5204309;28;20045;-80
2022/09/09 09:16:19;;;;;;;1.30;0.40;;;;;;;18.77;57.92;100307.50;5218294;28;20037;-80
2022/09/09 09:18:51;;;;;;;0.20;0.20;;;;;;;18.73;57.55;100322.81;5194649;28;20044;-80
2022/09/09 09:21:29;;;;;;;0.30;0.30;;;;;;;18.73;57.32;100320.16;5182219;28;20048;-80
2022/09/09 09:24:05;;;;;;;0.68;0.68;;;;;;;18.72;57.47;100323.78;5179295;28;20430;-80
2022/09/09 09:26:37;;;;;;;0.25;0.25;;;;;;;18.75;57.52;100317.41;5204097;28;20028;-80
2022/09/09 09:29:16;;;;;;;0.32;0.32;;;;;;;18.90;57.51;100312.84;5223147;28;20051;-80
2022/09/09 09:31:54;;;;;;;0.73;0.73;;;;;;;18.92;57.49;100305.63;5230484;28;20036;-80
2022/09/09 09:34:25;;;;;;;0.28;0.28;;;;;;;18.99;57.51;100312.25;5222523;28;20099;-79
2022/09/09 09:36:57;;;;;;;0.20;0.20;;;;;;;19.06;57.35;100310.84;5219935;28;20033;-80
2022/09/09 09:39:31;;;;;;;2.90;0.90;;;;;;;19.11;57.49;100311.41;5225132;28;20175;-80
2022/09/09 09:42:17;;;;;;;10.85;0.90;;;;;;;19.19;56.99;100311.72;5231830;28;20056;-80
2022/09/09 09:44:48;;;;;;;0.85;0.85;;;;;;;19.28;57.69;100304.06;5240913;28;20033;-81
2022/09/09 09:47:21;;;;;;;0.98;0.95;;;;;;;19.37;56.67;100314.06;5213345;28;20045;-80
2022/09/09 09:50:02;;;;;;;0.35;0.35;;;;;;;19.35;56.47;100313.31;5216836;28;20021;-80
2022/09/09 09:52:34;;;;;;;0.30;0.30;;;;;;;19.35;55.80;100307.97;5208626;28;20038;-80
2022/09/09 09:55:13;;;;;;;0.20;0.20;;;;;;;19.39;56.14;100306.78;5187517;28;20040;-80
2022/09/09 09:57:44;;;;;;;3.72;1.27;;;;;;;19.40;56.01;100305.84;5206417;28;20048;-80
2022/09/09 10:00:18;;;;;;;0.20;0.20;;;;;;;19.42;55.79;100298.59;5208803;28;20687;-80
2022/09/09 10:02:51;;;;;;;0.20;0.20;;;;;;;19.49;55.89;100305.19;5206110;28;20032;-81
2022/09/09 10:05:25;;;;;;;0.20;0.20;;;;;;;19.50;55.21;100301.56;5204074;28;20120;-82
2022/09/09 10:08:11;;;;;;;0.20;0.20;;;;;;;19.53;55.59;100305.81;5221610;28;20167;-80
2022/09/09 10:10:51;;;;;;;0.20;0.20;;;;;;;19.54;55.34;100296.88;5203318;28;20025;-81
2022/09/09 10:13:25;;;;;;;0.30;0.30;;;;;;;19.65;55.73;100299.63;5196318;28;20048;-81
2022/09/09 10:16:13;;;;;;;2.50;0.93;;;;;;;19.74;53.82;100298.09;5220008;28;20425;-79
2022/09/09 10:19:00;;;;;;;0.52;0.40;;;;;;;19.82;53.65;100295.72;5191196;28;20131;-79
2022/09/09 10:21:44;;;;;;;0.60;0.60;;;;;;;19.81;53.97;100299.34;5200340;28;20064;-79
2022/09/09 10:24:14;;;;;;;0.60;0.60;;;;;;;19.87;54.12;100300.75;5217591;28;20033;-78
2022/09/09 10:26:55;;;;;;;0.30;0.30;;;;;;;19.96;54.30;100285.91;5189532;28;20098;-79
2022/09/09 10:29:32;;;;;;;0.30;0.30;;;;;;;20.08;54.05;100290.34;5217881;28;20654;-79
2022/09/09 10:32:33;;;;;;;0.20;0.20;;;;;;;19.96;53.16;100291.22;5188300;28;20250;-79
2022/09/09 10:35:18;;;;;;;0.20;0.20;;;;;;;20.06;53.98;100296.75;5193725;28;20049;-79
2022/09/09 10:38:13;;;;;;;0.20;0.20;;;;;;;20.10;54.09;100292.88;5205702;28;20457;-79
2022/09/09 10:40:55;;;;;;;0.30;0.30;;;;;;;20.13;53.80;100290.84;5202608;28;20033;-79
2022/09/09 10:43:31;;;;;;;0.20;0.20;;;;;;;20.22;53.69;100284.00;5186628;28;20591;-79
2022/09/09 10:46:35;;;;;;;0.20;0.20;;;;;;;20.20;53.45;100291.25;5219503;28;20484;-79
2022/09/09 10:49:24;;;;;;;0.40;0.40;;;;;;;20.23;53.71;100284.81;5203257;28;20517;-79
2022/09/09 10:52:17;;;;;;;0.32;0.32;;;;;;;20.19;53.15;100291.34;5206608;28;20475;-79
2022/09/09 10:54:48;;;;;;;0.13;0.13;;;;;;;20.25;52.35;100299.72;5224489;28;20094;-79
2022/09/09 10:57:36;;;;;;;0.45;0.45;;;;;;;20.23;53.01;100315.00;5203213;28;20049;-79
2022/09/09 11:00:14;;;;;;;0.40;0.40;;;;;;;19.93;54.09;100302.97;5183023;28;20032;-79
2022/09/09 11:02:51;;;;;;;0.30;0.30;;;;;;;19.93;53.88;100297.63;5203949;28;20037;-79
2022/09/09 11:05:30;;;;;;;0.35;0.35;;;;;;;20.06;53.89;100291.41;5188424;28;20502;-79
2022/09/09 11:08:17;;;;;;;0.30;0.30;;;;;;;20.16;53.42;100289.78;5197910;28;20591;-79
2022/09/09 11:11:11;;;;;;;0.20;0.20;;;;;;;20.15;53.26;100289.88;5225765;28;20021;-79
2022/09/09 11:14:30;;;;;;;0.20;0.20;;;;;;;20.23;52.67;100285.69;5208680;28;20061;-78
2022/09/09 11:17:06;;;;;;;0.17;0.17;;;;;;;20.10;53.01;100282.22;5160636;28;20034;-79
2022/09/09 11:19:43;;;;;;;0.20;0.20;;;;;;;20.02;53.69;100293.47;5201008;28;20037;-79
2022/09/09 11:22:36;;;;;;;0.50;0.50;;;;;;;19.89;53.46;100288.19;5224078;28;20033;-79
2022/09/09 11:25:22;;;;;;;0.20;0.20;;;;;;;19.98;53.90;100283.97;5205704;28;20068;-79
2022/09/09 11:28:19;;;;;;;0.20;0.20;;;;;;;20.12;54.35;100281.13;5225729;28;20285;-80
2022/09/09 11:30:59;;;;;;;0.20;0.20;;;;;;;20.04;54.13;100288.84;5249344;28;20017;-79
2022/09/09 11:33:49;;;;;;;0.30;0.30;;;;;;;20.02;53.90;100288.13;5226415;28;20044;-79
2022/09/09 11:36:53;;;;;;;0.47;0.47;;;;;;;20.12;54.29;100291.78;5189468;28;20037;-79
2022/09/09 11:39:30;;;;;;;0.30;0.30;;;;;;;20.18;54.38;100290.50;5204431;28;20603;-79
2022/09/09 11:42:15;;;;;;;0.30;0.30;;;;;;;20.18;54.94;100294.97;5240299;28;20052;-79
2022/09/09 11:44:46;;;;;;;0.52;0.52;;;;;;;20.03;55.36;100297.81;5191498;28;20506;-79
2022/09/09 11:47:30;;;;;;;0.20;0.20;;;;;;;20.04;55.29;100299.50;5205668;28;20045;-79
2022/09/09 11:50:18;;;;;;;0.28;0.28;;;;;;;20.12;55.01;100297.13;5210019;28;20044;-79
2022/09/09 11:52:49;;;;;;;0.20;0.20;;;;;;;20.32;55.22;100296.63;5195346;28;20037;-79
2022/09/09 11:55:30;;;;;;;0.32;0.32;;;;;;;20.41;55.47;100291.44;5194931;28;20110;-79
2022/09/09 11:58:05;;;;;;;1.40;1.30;;;;;;;20.47;54.87;100291.94;5198260;28;20132;-80
2022/09/09 12:00:41;;;;;;;0.20;0.20;;;;;;;20.40;53.73;100287.06;5189861;28;20037;-81
2022/09/09 12:03:31;;;;;;;0.85;0.50;;;;;;;20.37;54.93;100295.28;5193520;28;20040;-80
2022/09/09 12:06:10;;;;;;;8.88;0.98;;;;;;;20.33;54.89;100293.84;5190824;28;20448;-82
2022/09/09 12:08:45;;;;;;;0.30;0.30;;;;;;;20.38;54.59;100294.31;5190913;28;20098;-79